EZY317 EGKK-LOWI
Flight info
| Callsign | EZY317 |
|---|---|
| Flight time | N/A |
| Altitude | 37000 |
| Route | MIMFO Y312 DVR UL9 KONAN UL607 MATUG DCT AMASI DCT BOMBI/N0455F310 T104 WLD M867 BAVAX Z106 MANAL M736 TULSI TULSI3A |
| Aircraft | A20N/M-SDE2E3FGHIRWXY/LB1 |
Departure
| Time | 2026-04-16 21:48 |
|---|---|
| Airport | London Gatwick Airport (EGKK) |
Arrival
| Time | N/A |
|---|---|
| Airport | Innsbruck Airport (LOWI) |
| Time | Latitude | Longitude | Altitude | Speed | Heading |
|---|---|---|---|---|---|
| 2026-04-16 21:29 | 51.15513 | -0.16713 | 208 ft | 0 kts | 347° |
| 2026-04-16 21:41 | 51.15506 | -0.16710 | 208 ft | 3 kts | 347° |
| 2026-04-16 21:42 | 51.15489 | -0.16703 | 211 ft | 3 kts | 329° |
| 2026-04-16 21:42 | 51.15473 | -0.16688 | 216 ft | 3 kts | 329° |
| 2026-04-16 21:42 | 51.15459 | -0.16670 | 220 ft | 3 kts | 298° |
| 2026-04-16 21:42 | 51.15455 | -0.16658 | 220 ft | 0 kts | 279° |
| 2026-04-16 21:43 | 51.15450 | -0.16684 | 217 ft | 6 kts | 244° |
| 2026-04-16 21:43 | 51.15409 | -0.16714 | 212 ft | 7 kts | 174° |
| 2026-04-16 21:43 | 51.15363 | -0.16695 | 214 ft | 7 kts | 165° |
| 2026-04-16 21:43 | 51.15339 | -0.16684 | 214 ft | 0 kts | 165° |
| 2026-04-16 21:45 | 51.15325 | -0.16678 | 208 ft | 5 kts | 165° |
| 2026-04-16 21:45 | 51.15288 | -0.16663 | 216 ft | 6 kts | 165° |
| 2026-04-16 21:45 | 51.15251 | -0.16649 | 208 ft | 1 kts | 168° |
| 2026-04-16 21:46 | 51.15246 | -0.16647 | 218 ft | 4 kts | 168° |
| 2026-04-16 21:47 | 51.15179 | -0.16632 | 207 ft | 14 kts | 186° |
| 2026-04-16 21:47 | 51.15125 | -0.16739 | 211 ft | 2 kts | 258° |
| 2026-04-16 21:47 | 51.15125 | -0.16740 | 211 ft | 0 kts | 258° |
| 2026-04-16 21:47 | 51.15121 | -0.16771 | 206 ft | 19 kts | 259° |
| 2026-04-16 21:48 | 51.15038 | -0.17403 | 214 ft | 98 kts | 255° |
| 2026-04-16 21:48 | 51.14828 | -0.18894 | 282 ft | 167 kts | 256° |
| 2026-04-16 21:48 | 51.14550 | -0.20729 | 1091 ft | 171 kts | 254° |
| 2026-04-16 21:48 | 51.14264 | -0.22582 | 2077 ft | 175 kts | 255° |
| 2026-04-16 21:49 | 51.13989 | -0.24555 | 2705 ft | 191 kts | 256° |
| 2026-04-16 21:49 | 51.13729 | -0.26688 | 3408 ft | 202 kts | 259° |
| 2026-04-16 21:49 | 51.13791 | -0.28974 | 3833 ft | 217 kts | 282° |
| 2026-04-16 21:49 | 51.14566 | -0.31107 | 3967 ft | 227 kts | 312° |
| 2026-04-16 21:50 | 51.15954 | -0.32296 | 3999 ft | 237 kts | 345° |
| 2026-04-16 21:50 | 51.17612 | -0.32110 | 3997 ft | 246 kts | 19° |
| 2026-04-16 21:50 | 51.18967 | -0.30466 | 4002 ft | 249 kts | 56° |
| 2026-04-16 21:50 | 51.19628 | -0.27949 | 4008 ft | 248 kts | 78° |
| 2026-04-16 21:51 | 51.19996 | -0.25242 | 4004 ft | 250 kts | 81° |
| 2026-04-16 21:51 | 51.20320 | -0.22522 | 3998 ft | 250 kts | 82° |
| 2026-04-16 21:51 | 51.20644 | -0.19790 | 4008 ft | 255 kts | 81° |
| 2026-04-16 21:51 | 51.20992 | -0.16886 | 4013 ft | 276 kts | 81° |
| 2026-04-16 21:52 | 51.21365 | -0.13847 | 4089 ft | 283 kts | 81° |
| 2026-04-16 21:52 | 51.21753 | -0.10734 | 4650 ft | 287 kts | 81° |
| 2026-04-16 21:52 | 51.22143 | -0.07625 | 4952 ft | 285 kts | 81° |
| 2026-04-16 21:52 | 51.22526 | -0.04569 | 4994 ft | 285 kts | 81° |
| 2026-04-16 21:53 | 51.22915 | -0.01464 | 5001 ft | 286 kts | 81° |
| 2026-04-16 21:53 | 51.23304 | 0.01657 | 5002 ft | 286 kts | 81° |
| 2026-04-16 21:53 | 51.23693 | 0.04774 | 5003 ft | 286 kts | 81° |
| 2026-04-16 21:53 | 51.24081 | 0.07897 | 5001 ft | 286 kts | 81° |
| 2026-04-16 21:54 | 51.24469 | 0.11020 | 4999 ft | 286 kts | 81° |
| 2026-04-16 21:54 | 51.24856 | 0.14146 | 5301 ft | 288 kts | 81° |
| 2026-04-16 21:54 | 51.25244 | 0.17299 | 6175 ft | 290 kts | 82° |
| 2026-04-16 21:54 | 51.25418 | 0.20481 | 7110 ft | 288 kts | 95° |
| 2026-04-16 21:55 | 51.25260 | 0.23678 | 7774 ft | 288 kts | 99° |
| 2026-04-16 21:55 | 51.25022 | 0.26816 | 8691 ft | 290 kts | 101° |
| 2026-04-16 21:55 | 51.24766 | 0.30024 | 9590 ft | 293 kts | 101° |
| 2026-04-16 21:55 | 51.24506 | 0.33303 | 10200 ft | 306 kts | 100° |
| 2026-04-16 21:56 | 51.24230 | 0.36799 | 10540 ft | 328 kts | 100° |
| 2026-04-16 21:56 | 51.23938 | 0.40530 | 10874 ft | 349 kts | 99° |
| 2026-04-16 21:56 | 51.23633 | 0.44472 | 11299 ft | 365 kts | 99° |
| 2026-04-16 21:56 | 51.23320 | 0.48551 | 11938 ft | 374 kts | 99° |
| 2026-04-16 21:57 | 51.23000 | 0.52703 | 12644 ft | 380 kts | 99° |
| 2026-04-16 21:57 | 51.22673 | 0.56937 | 13372 ft | 386 kts | 99° |
| 2026-04-16 21:57 | 51.22342 | 0.61200 | 14085 ft | 391 kts | 99° |
| 2026-04-16 21:57 | 51.22004 | 0.65529 | 14768 ft | 396 kts | 99° |
| 2026-04-16 21:58 | 51.21660 | 0.69907 | 15461 ft | 401 kts | 99° |
| 2026-04-16 21:58 | 51.21314 | 0.74292 | 16143 ft | 405 kts | 99° |
| 2026-04-16 21:58 | 51.20958 | 0.78770 | 16830 ft | 410 kts | 99° |
| 2026-04-16 21:58 | 51.20595 | 0.83312 | 17531 ft | 415 kts | 99° |
| 2026-04-16 21:59 | 51.20226 | 0.87915 | 18269 ft | 420 kts | 99° |
| 2026-04-16 21:59 | 51.19851 | 0.92567 | 18848 ft | 425 kts | 100° |
| 2026-04-16 21:59 | 51.19470 | 0.97266 | 19392 ft | 430 kts | 100° |
| 2026-04-16 21:59 | 51.19083 | 1.02011 | 19946 ft | 433 kts | 100° |
| 2026-04-16 22:00 | 51.18691 | 1.06804 | 20474 ft | 438 kts | 100° |
| 2026-04-16 22:00 | 51.18289 | 1.11673 | 20760 ft | 449 kts | 100° |
| 2026-04-16 22:00 | 51.17874 | 1.16675 | 20978 ft | 460 kts | 100° |
| 2026-04-16 22:00 | 51.17446 | 1.21796 | 21189 ft | 471 kts | 99° |
| 2026-04-16 22:01 | 51.17008 | 1.27029 | 21392 ft | 480 kts | 99° |
| 2026-04-16 22:01 | 51.16565 | 1.32297 | 21606 ft | 489 kts | 99° |
| 2026-04-16 22:01 | 51.16142 | 1.37711 | 21934 ft | 495 kts | 98° |
| 2026-04-16 22:01 | 51.15820 | 1.43206 | 22316 ft | 500 kts | 96° |
| 2026-04-16 22:02 | 51.15556 | 1.48748 | 22715 ft | 503 kts | 96° |
| 2026-04-16 22:02 | 51.15314 | 1.54327 | 23110 ft | 506 kts | 96° |
| 2026-04-16 22:02 | 51.15070 | 1.59942 | 23483 ft | 510 kts | 96° |
| 2026-04-16 22:02 | 51.14815 | 1.65587 | 23854 ft | 513 kts | 96° |
| 2026-04-16 22:03 | 51.14549 | 1.71252 | 24172 ft | 515 kts | 96° |
| 2026-04-16 22:03 | 51.14269 | 1.76967 | 24493 ft | 518 kts | 96° |
| 2026-04-16 22:03 | 51.13984 | 1.82644 | 24821 ft | 520 kts | 96° |
| 2026-04-16 22:03 | 51.13689 | 1.88409 | 25155 ft | 522 kts | 96° |
| 2026-04-16 22:04 | 51.13389 | 1.94179 | 25575 ft | 522 kts | 96° |
| 2026-04-16 22:04 | 51.13088 | 1.99944 | 26030 ft | 522 kts | 96° |
| 2026-04-16 22:04 | 51.12783 | 2.05704 | 26423 ft | 522 kts | 96° |
| 2026-04-16 22:04 | 51.12476 | 2.11463 | 26895 ft | 521 kts | 96° |